Time;durP1;ratioP1;P1;durP2;ratioP2;P2;SDS_P1;SDS_P2;PMS_P1;PMS_P2;Temp;Humidity;BMP_temperature;BMP_pressure;BME280_temperature;BME280_humidity;BME280_pressure;Samples;Min_cycle;Max_cycle;Signal;HPM_P1;HPM_P2
2021/08/11 00:00:02;;;;;;;7.13;3.83;;;;;;;17.14;91.26;101420.72;6363465;28;20251;-77
2021/08/11 00:03:16;;;;;;;4.63;3.35;;;;;;;17.06;92.17;101426.63;6363178;28;20189;-77
2021/08/11 00:06:22;;;;;;;7.53;3.72;;;;;;;17.18;91.21;101419.13;6362257;28;20249;-77
2021/08/11 00:09:26;;;;;;;5.55;4.20;;;;;;;17.29;90.18;101423.78;6363341;28;20291;-77
2021/08/11 00:12:31;;;;;;;6.32;3.65;;;;;;;17.21;90.62;101424.16;6361967;28;20493;-77
2021/08/11 00:15:35;;;;;;;9.60;4.20;;;;;;;17.23;90.53;101427.50;6363466;28;20182;-77
2021/08/11 00:18:42;;;;;;;6.13;3.60;;;;;;;17.16;90.48;101418.56;6366192;28;20217;-77
2021/08/11 00:21:46;;;;;;;5.65;3.55;;;;;;;17.37;89.39;101420.63;6366814;28;20474;-77
2021/08/11 00:24:51;;;;;;;4.30;3.60;;;;;;;17.31;89.67;101421.59;6367645;28;20188;-77
2021/08/11 00:27:57;;;;;;;4.00;3.70;;;;;;;17.37;89.16;101417.03;6367606;28;20207;-77
2021/08/11 00:31:02;;;;;;;9.98;3.95;;;;;;;17.41;88.99;101407.19;6348884;28;20558;-77
2021/08/11 00:34:09;;;;;;;4.50;3.30;;;;;;;17.18;89.84;101413.63;6339893;28;20284;-77
2021/08/11 00:37:13;;;;;;;4.97;4.28;;;;;;;17.10;90.79;101414.00;6340277;28;20218;-77
2021/08/11 00:40:25;;;;;;;3.85;3.38;;;;;;;17.12;90.14;101403.59;6339510;28;20205;-77
2021/08/11 00:43:32;;;;;;;3.30;3.00;;;;;;;17.01;91.04;101418.25;6340652;28;20198;-77
2021/08/11 00:46:41;;;;;;;13.68;3.92;;;;;;;16.96;90.95;101411.81;6340308;28;20198;-77
2021/08/11 00:49:48;;;;;;;5.28;3.47;;;;;;;17.03;90.78;101413.34;6322554;28;20265;-77
2021/08/11 00:52:53;;;;;;;6.18;3.42;;;;;;;17.09;90.56;101403.25;6340344;28;20359;-77
2021/08/11 00:55:59;;;;;;;5.28;3.53;;;;;;;17.14;90.27;101404.19;6373986;27;20220;-77
2021/08/11 00:59:09;;;;;;;4.88;3.40;;;;;;;17.16;89.91;101393.75;6339308;28;20245;-77
2021/08/11 01:02:17;;;;;;;6.93;3.42;;;;;;;17.14;90.00;101395.06;6340026;28;20287;-77
2021/08/11 01:05:23;;;;;;;4.03;3.45;;;;;;;17.09;90.10;101398.56;6323061;28;20272;-77
2021/08/11 01:08:30;;;;;;;6.25;3.83;;;;;;;17.21;89.12;101385.56;6323041;28;20202;-77
2021/08/11 01:11:36;;;;;;;3.78;3.42;;;;;;;17.18;89.25;101394.31;6341303;28;20183;-77
2021/08/11 01:14:42;;;;;;;4.88;3.35;;;;;;;17.16;89.36;101374.44;6323499;28;20199;-77
2021/08/11 01:17:48;;;;;;;4.65;3.45;;;;;;;17.13;89.21;101377.69;6322809;28;20222;-77
2021/08/11 01:21:03;;;;;;;3.70;3.40;;;;;;;17.06;89.51;101374.25;6322187;28;20266;-77
2021/08/11 01:24:22;;;;;;;3.97;3.70;;;;;;;17.06;89.47;101382.53;6322349;28;20509;-77
2021/08/11 01:27:50;;;;;;;3.63;3.20;;;;;;;16.98;90.06;101374.63;6338842;28;20203;-77
2021/08/11 01:31:04;;;;;;;4.32;3.17;;;;;;;16.97;89.83;101378.50;6320953;28;20601;-77
2021/08/11 01:34:16;;;;;;;3.92;3.63;;;;;;;16.96;89.98;101378.72;6372096;27;20262;-77
2021/08/11 01:37:28;;;;;;;3.42;3.20;;;;;;;16.82;90.82;101375.41;6339222;28;20378;-77
2021/08/11 01:40:37;;;;;;;4.75;3.45;;;;;;;16.91;89.81;101387.75;6374770;27;20199;-77
2021/08/11 01:43:46;;;;;;;6.75;3.92;;;;;;;16.92;89.72;101386.66;6340107;28;20213;-77
2021/08/11 01:46:53;;;;;;;22.25;4.25;;;;;;;16.86;89.94;101382.97;6373715;27;20261;-77
2021/08/11 01:50:00;;;;;;;13.07;4.55;;;;;;;16.89;90.00;101392.66;6321652;28;20234;-77
2021/08/11 01:53:10;;;;;;;9.93;3.97;;;;;;;16.88;89.64;101386.31;6321903;28;20198;-77
2021/08/11 01:56:17;;;;;;;13.98;4.60;;;;;;;16.86;90.13;101393.16;6337487;28;20207;-77
2021/08/11 01:59:26;;;;;;;4.13;3.45;;;;;;;16.87;90.20;101384.63;6338169;28;20219;-77
2021/08/11 02:02:31;;;;;;;4.43;4.07;;;;;;;16.81;90.59;101390.28;6338615;28;20375;-77
2021/08/11 02:05:40;;;;;;;8.35;4.00;;;;;;;16.83;90.22;101388.13;6354872;28;20191;-77
2021/08/11 02:08:51;;;;;;;10.45;3.70;;;;;;;16.83;90.14;101377.94;6338022;28;20210;-77
2021/08/11 02:11:58;;;;;;;9.70;3.65;;;;;;;16.80;90.00;101383.09;6354962;28;20198;-76
2021/08/11 02:15:05;;;;;;;5.75;3.67;;;;;;;16.75;89.88;101377.47;6320672;28;20222;-77
2021/08/11 02:18:13;;;;;;;13.57;4.03;;;;;;;16.67;90.24;101377.88;6339233;28;20207;-77
2021/08/11 02:21:20;;;;;;;7.78;3.85;;;;;;;16.70;90.37;101377.38;6338022;28;20206;-77
2021/08/11 02:24:25;;;;;;;16.88;3.72;;;;;;;16.72;90.03;101383.47;6338184;28;20206;-77
2021/08/11 02:27:36;;;;;;;17.23;4.13;;;;;;;16.76;89.48;101381.91;6337233;28;20198;-77
2021/08/11 02:30:50;;;;;;;8.05;3.70;;;;;;;16.78;89.04;101385.25;6337416;28;20198;-77
2021/08/11 02:34:03;;;;;;;6.00;3.90;;;;;;;16.74;88.81;101386.84;6337007;28;20284;-76
2021/08/11 02:37:15;;;;;;;4.97;3.75;;;;;;;16.75;88.50;101396.78;6320184;28;20206;-76
2021/08/11 02:40:24;;;;;;;4.20;3.60;;;;;;;16.76;88.12;101398.47;6319888;28;20226;-76
2021/08/11 02:43:36;;;;;;;6.93;3.92;;;;;;;16.69;88.07;101397.75;6353957;28;20198;-76
2021/08/11 02:46:44;;;;;;;5.32;4.00;;;;;;;16.63;88.18;101398.72;6336852;28;20234;-76
2021/08/11 02:49:51;;;;;;;4.50;3.90;;;;;;;16.63;88.10;101390.47;6335856;28;20194;-76
2021/08/11 02:52:57;;;;;;;4.32;3.92;;;;;;;16.60;88.17;101399.22;6335766;28;20490;-76
2021/08/11 02:56:02;;;;;;;5.97;5.43;;;;;;;16.62;87.96;101402.56;6320061;28;20265;-76
2021/08/11 02:59:09;;;;;;;5.43;3.72;;;;;;;16.61;87.80;101407.25;6319833;28;20229;-77
2021/08/11 03:02:14;;;;;;;6.47;4.43;;;;;;;16.58;88.04;101406.88;6336906;28;20183;-76
2021/08/11 03:05:19;;;;;;;4.10;3.90;;;;;;;16.68;88.06;101412.59;6352461;28;20384;-76
2021/08/11 03:08:28;;;;;;;3.92;3.83;;;;;;;16.69;87.71;101412.34;6336640;28;20501;-76
2021/08/11 03:11:35;;;;;;;3.85;3.50;;;;;;;16.65;87.93;101418.59;6319814;28;20199;-76
2021/08/11 03:14:42;;;;;;;3.97;3.60;;;;;;;16.49;89.21;101403.63;6319327;28;20357;-76
2021/08/11 03:17:47;;;;;;;3.85;3.50;;;;;;;16.41;90.03;101406.75;6370058;27;20262;-76
2021/08/11 03:20:52;;;;;;;4.00;3.78;;;;;;;16.41;90.07;101411.44;6335293;28;20226;-76
2021/08/11 03:23:57;;;;;;;3.78;3.45;;;;;;;16.40;90.44;101407.00;6336291;28;20466;-76
2021/08/11 03:27:05;;;;;;;3.75;3.50;;;;;;;16.38;90.38;101398.16;6318707;28;20265;-76
2021/08/11 03:30:13;;;;;;;3.55;3.30;;;;;;;16.38;90.67;101392.63;6319588;28;20203;-76
2021/08/11 03:33:17;;;;;;;5.35;3.40;;;;;;;16.47;89.74;101410.47;6368722;28;20556;-76
2021/08/11 03:36:23;;;;;;;4.07;3.78;;;;;;;16.49;89.57;101409.13;6336216;28;20206;-76
2021/08/11 03:39:29;;;;;;;3.53;3.35;;;;;;;16.46;89.86;101417.06;6337412;28;20277;-76
2021/08/11 03:42:34;;;;;;;6.60;3.55;;;;;;;16.38;90.58;101422.94;6335237;28;20205;-76
2021/08/11 03:45:43;;;;;;;3.80;3.50;;;;;;;16.39;90.65;101424.59;6335550;28;20406;-76
2021/08/11 03:48:49;;;;;;;7.15;3.90;;;;;;;16.50;90.08;101421.00;6319645;28;20207;-76
2021/08/11 03:51:55;;;;;;;3.58;3.47;;;;;;;16.53;90.59;101426.91;6319349;28;20423;-76
2021/08/11 03:55:01;;;;;;;3.78;3.55;;;;;;;16.47;90.73;101410.47;6322700;28;20209;-76
2021/08/11 03:58:05;;;;;;;4.20;3.95;;;;;;;16.54;90.35;101423.06;6357092;28;20205;-76
2021/08/11 04:01:34;;;;;;;4.13;3.70;;;;;;;16.55;90.24;101418.38;6341194;28;20190;-76
2021/08/11 04:04:40;;;;;;;3.70;3.50;;;;;;;16.59;90.27;101416.84;6341642;28;20183;-76
2021/08/11 04:07:47;;;;;;;5.75;3.80;;;;;;;16.60;90.22;101410.22;6342006;28;20189;-76
2021/08/11 04:10:53;;;;;;;3.95;3.65;;;;;;;16.59;90.62;101409.38;6340718;28;20478;-76
2021/08/11 04:13:57;;;;;;;5.60;3.80;;;;;;;16.56;90.91;101414.56;6342019;28;20183;-76
2021/08/11 04:17:01;;;;;;;3.90;3.53;;;;;;;16.57;90.93;101421.72;6341401;28;20187;-76
2021/08/11 04:20:07;;;;;;;4.38;4.07;;;;;;;16.57;91.25;101422.56;6341588;28;20281;-76
2021/08/11 04:23:14;;;;;;;6.75;3.70;;;;;;;16.62;91.43;101414.41;6340442;28;20190;-76
2021/08/11 04:26:20;;;;;;;4.32;4.13;;;;;;;16.73;90.97;101420.97;6340373;28;20474;-76
2021/08/11 04:29:24;;;;;;;6.32;4.55;;;;;;;16.77;90.73;101424.91;6341290;28;20187;-76
2021/08/11 04:32:28;;;;;;;4.75;4.18;;;;;;;16.75;91.84;101418.81;6340453;28;20231;-76
2021/08/11 04:35:33;;;;;;;5.00;3.80;;;;;;;16.81;90.71;101423.34;6340930;28;20189;-76
2021/08/11 04:38:39;;;;;;;4.78;4.35;;;;;;;16.89;90.53;101431.25;6341148;28;20187;-76
2021/08/11 04:41:45;;;;;;;4.45;4.15;;;;;;;16.90;90.75;101427.41;6339747;28;20207;-75
2021/08/11 04:44:49;;;;;;;4.07;3.83;;;;;;;16.94;90.88;101436.03;6339734;28;20268;-76
2021/08/11 04:47:53;;;;;;;4.05;3.72;;;;;;;16.91;92.19;101437.34;6340718;28;20187;-76
2021/08/11 04:50:57;;;;;;;4.65;4.28;;;;;;;16.97;91.77;101438.28;6340750;28;20187;-75
2021/08/11 04:54:02;;;;;;;4.28;3.70;;;;;;;16.96;91.40;101437.44;6339366;28;20510;-75
2021/08/11 04:57:07;;;;;;;5.43;4.20;;;;;;;16.99;91.51;101434.22;6340403;28;20183;-75
2021/08/11 05:00:15;;;;;;;4.90;4.50;;;;;;;17.07;90.99;101439.34;6339223;28;20421;-75
2021/08/11 05:03:21;;;;;;;4.30;3.90;;;;;;;17.14;90.92;101433.66;6339762;28;20258;-76
2021/08/11 05:06:25;;;;;;;4.53;4.38;;;;;;;17.15;91.21;101427.94;6339835;28;20229;-76
2021/08/11 05:09:29;;;;;;;4.97;4.30;;;;;;;17.10;91.59;101433.31;6340542;28;20215;-76
2021/08/11 05:12:35;;;;;;;4.25;3.95;;;;;;;17.19;90.88;101431.84;6365438;28;20213;-76
2021/08/11 05:15:39;;;;;;;4.45;4.15;;;;;;;17.25;90.70;101433.63;6365769;28;20189;-76
2021/08/11 05:18:47;;;;;;;5.35;4.32;;;;;;;17.31;90.49;101432.63;6365515;28;20182;-76
2021/08/11 05:21:51;;;;;;;4.68;4.28;;;;;;;17.39;90.51;101428.63;6364086;28;20495;-75
2021/08/11 05:24:55;;;;;;;4.70;4.32;;;;;;;17.41;91.37;101427.31;6364893;28;20251;-76
2021/08/11 05:28:01;;;;;;;5.55;4.25;;;;;;;17.43;90.81;101425.16;6365362;28;20186;-75
2021/08/11 05:31:08;;;;;;;8.32;4.30;;;;;;;17.54;90.49;101428.13;6363952;28;20528;-75
2021/08/11 05:34:13;;;;;;;4.72;4.43;;;;;;;17.59;90.44;101425.47;6363975;28;20241;-75
2021/08/11 05:37:17;;;;;;;5.57;5.07;;;;;;;17.56;90.55;101425.94;6365337;28;20201;-75
2021/08/11 05:40:21;;;;;;;7.22;4.72;;;;;;;17.73;89.62;101424.03;6363647;28;20214;-76
2021/08/11 05:43:27;;;;;;;8.23;5.15;;;;;;;17.81;89.69;101423.63;6364753;28;20227;-76
2021/08/11 05:46:31;;;;;;;6.35;4.80;;;;;;;17.92;89.36;101425.47;6364724;28;20182;-76
2021/08/11 05:49:36;;;;;;;6.28;5.47;;;;;;;17.87;89.27;101428.16;6363789;28;20371;-76
2021/08/11 05:52:40;;;;;;;8.15;5.93;;;;;;;17.99;89.33;101415.09;6364013;28;20388;-76
2021/08/11 05:55:44;;;;;;;10.20;6.03;;;;;;;17.99;89.25;101409.56;6365387;28;20250;-76
2021/08/11 05:58:50;;;;;;;7.90;5.25;;;;;;;18.07;88.65;101417.44;6364297;28;20182;-76
2021/08/11 06:01:54;;;;;;;5.50;5.13;;;;;;;18.14;88.90;101420.84;6363285;28;20210;-76
2021/08/11 06:04:58;;;;;;;8.38;5.15;;;;;;;18.20;88.63;101411.56;6364380;28;20186;-76
2021/08/11 06:08:03;;;;;;;6.60;4.70;;;;;;;18.29;88.31;101415.53;6363039;28;20469;-76
2021/08/11 06:11:07;;;;;;;6.60;4.22;;;;;;;18.34;88.21;101412.84;6364376;28;20507;-76
2021/08/11 06:14:14;;;;;;;4.78;4.32;;;;;;;18.37;88.50;101417.03;6363992;28;20255;-76
2021/08/11 06:17:19;;;;;;;5.65;4.43;;;;;;;18.49;87.59;101420.59;6363949;28;20249;-76
2021/08/11 06:20:24;;;;;;;4.57;4.18;;;;;;;18.50;88.60;101414.78;6363259;28;20209;-76
2021/08/11 06:23:29;;;;;;;4.80;4.50;;;;;;;18.54;88.96;101406.84;6363576;28;20295;-76
2021/08/11 06:26:34;;;;;;;5.30;3.88;;;;;;;18.51;89.05;101413.72;6363691;28;20189;-76
2021/08/11 06:29:40;;;;;;;4.97;3.80;;;;;;;18.68;88.71;101408.94;6362574;28;20466;-76
2021/08/11 06:32:46;;;;;;;4.78;4.38;;;;;;;18.81;88.24;101415.19;6351088;28;20230;-76
2021/08/11 06:35:51;;;;;;;5.78;4.07;;;;;;;18.73;89.02;101406.25;6338174;28;20214;-76
2021/08/11 06:38:58;;;;;;;9.77;3.80;;;;;;;18.95;88.78;101419.25;6336842;28;20183;-76
2021/08/11 06:42:02;;;;;;;6.15;3.80;;;;;;;18.96;88.03;101418.97;6338108;28;20210;-76
2021/08/11 06:45:31;;;;;;;7.43;3.92;;;;;;;19.14;86.97;101407.56;6326891;28;20479;-76
2021/08/11 06:48:36;;;;;;;3.65;3.45;;;;;;;19.32;86.45;101411.91;6335957;28;20494;-76
2021/08/11 06:51:40;;;;;;;4.03;3.47;;;;;;;19.48;85.80;101405.47;6337931;28;20222;-76
2021/08/11 06:54:44;;;;;;;4.72;3.78;;;;;;;19.50;84.23;101410.72;6337717;28;20186;-77
2021/08/11 06:57:50;;;;;;;3.50;3.30;;;;;;;19.75;85.00;101403.50;6336587;28;20190;-77
2021/08/11 07:00:59;;;;;;;3.55;3.25;;;;;;;19.83;84.63;101405.78;6337876;28;20213;-76
2021/08/11 07:04:03;;;;;;;4.22;2.85;;;;;;;19.83;82.79;101404.94;6338644;28;20182;-76
2021/08/11 07:07:08;;;;;;;5.15;3.28;;;;;;;19.94;82.03;101399.22;6337321;28;20372;-76
2021/08/11 07:10:15;;;;;;;4.28;3.08;;;;;;;20.07;81.69;101394.31;6337277;28;20489;-76
2021/08/11 07:13:20;;;;;;;3.80;3.60;;;;;;;19.99;81.07;101392.88;6338637;28;20191;-76
2021/08/11 07:16:26;;;;;;;3.33;3.03;;;;;;;20.10;81.39;101410.41;6337088;28;20183;-76
2021/08/11 07:19:30;;;;;;;2.85;2.72;;;;;;;20.08;80.22;101396.00;6336375;28;20530;-76
2021/08/11 07:22:34;;;;;;;2.88;2.72;;;;;;;20.25;78.97;101396.69;6337288;28;20217;-77
2021/08/11 07:25:39;;;;;;;2.50;2.38;;;;;;;20.19;76.48;101397.72;6336195;28;20530;-77
2021/08/11 07:28:43;;;;;;;2.58;2.47;;;;;;;20.24;76.55;101400.56;6340087;28;20484;-77
2021/08/11 07:31:48;;;;;;;3.10;3.00;;;;;;;20.21;74.66;101395.53;6346314;28;20226;-77
2021/08/11 07:34:52;;;;;;;4.40;2.80;;;;;;;20.35;75.51;101396.75;6367819;28;20182;-77
2021/08/11 07:37:59;;;;;;;3.47;3.28;;;;;;;20.45;71.86;101396.81;6366844;28;20376;-77
2021/08/11 07:41:05;;;;;;;3.65;3.30;;;;;;;20.51;70.40;101404.06;6367106;28;20213;-77
2021/08/11 07:44:11;;;;;;;5.63;2.70;;;;;;;20.48;71.78;101396.28;6367701;28;20403;-77
2021/08/11 07:47:18;;;;;;;4.38;2.78;;;;;;;20.61;69.81;101395.78;6366414;28;20500;-76
2021/08/11 07:50:25;;;;;;;2.80;2.70;;;;;;;20.69;69.32;101403.59;6367131;28;20186;-77
2021/08/11 07:53:30;;;;;;;4.00;2.70;;;;;;;20.60;67.15;101394.09;6367412;28;20249;-77
2021/08/11 07:56:34;;;;;;;2.88;2.75;;;;;;;20.62;66.79;101389.13;6367966;28;20186;-76
2021/08/11 07:59:38;;;;;;;2.30;2.30;;;;;;;20.65;68.01;101396.09;6367480;28;20182;-76
2021/08/11 08:02:44;;;;;;;3.08;2.78;;;;;;;20.74;67.38;101397.22;6366619;28;20571;-76
2021/08/11 08:05:48;;;;;;;4.55;2.60;;;;;;;20.80;65.50;101399.75;6367709;28;20182;-77
2021/08/11 08:08:53;;;;;;;3.55;2.70;;;;;;;20.78;65.90;101401.97;6368113;28;20257;-77
2021/08/11 08:11:58;;;;;;;3.63;2.70;;;;;;;20.65;63.87;101399.69;6369369;28;20224;-78
2021/08/11 08:15:03;;;;;;;2.45;2.35;;;;;;;20.66;65.81;101393.03;6367885;28;20204;-76
2021/08/11 08:18:13;;;;;;;3.00;2.70;;;;;;;20.65;66.63;101396.09;6366697;28;20190;-75
2021/08/11 08:21:17;;;;;;;2.72;2.63;;;;;;;20.58;65.46;101407.41;6366168;28;20190;-76
2021/08/11 08:24:25;;;;;;;2.60;2.50;;;;;;;20.76;65.42;101397.78;6368078;28;20189;-77
2021/08/11 08:27:31;;;;;;;2.67;2.55;;;;;;;20.77;64.37;101405.84;6367464;28;20189;-76
2021/08/11 08:30:35;;;;;;;4.53;3.00;;;;;;;20.76;63.57;101398.63;6367014;28;20205;-76
2021/08/11 08:33:41;;;;;;;2.58;2.38;;;;;;;20.78;63.31;101401.97;6366448;28;20256;-77
2021/08/11 08:36:48;;;;;;;2.75;2.55;;;;;;;20.87;63.28;101408.66;6366515;28;20473;-76
2021/08/11 08:39:52;;;;;;;2.72;2.63;;;;;;;20.85;62.36;101408.09;6367575;28;20183;-76
2021/08/11 08:42:56;;;;;;;2.47;2.22;;;;;;;20.88;62.24;101407.53;6367908;28;20229;-77
2021/08/11 08:46:01;;;;;;;3.90;2.50;;;;;;;20.96;62.38;101409.81;6366346;28;20464;-76
2021/08/11 08:49:10;;;;;;;2.80;2.60;;;;;;;20.96;62.76;101401.47;6367003;28;20182;-76
2021/08/11 08:52:19;;;;;;;5.68;2.50;;;;;;;21.01;64.43;101395.09;6364901;28;20375;-76
2021/08/11 08:55:25;;;;;;;3.80;2.88;;;;;;;21.01;64.90;101401.50;6365668;28;20204;-76
2021/08/11 08:58:30;;;;;;;4.03;2.90;;;;;;;21.08;63.04;101402.09;6366011;28;20213;-76
2021/08/11 09:01:34;;;;;;;2.70;2.60;;;;;;;21.03;60.11;101409.56;6366583;28;20182;-77
2021/08/11 09:04:41;;;;;;;3.88;2.83;;;;;;;21.08;60.50;101401.28;6364984;28;20372;-76
2021/08/11 09:07:47;;;;;;;2.47;2.47;;;;;;;21.00;60.47;101405.41;6365796;28;20182;-77
2021/08/11 09:10:51;;;;;;;2.63;2.53;;;;;;;21.10;60.55;101408.22;6364834;28;20189;-77
2021/08/11 09:14:17;;;;;;;3.60;2.38;;;;;;;21.09;60.74;101398.22;6365748;28;20186;-76
2021/08/11 09:17:42;;;;;;;2.47;2.35;;;;;;;21.02;58.40;101407.88;6365352;28;20261;-77
2021/08/11 09:21:11;;;;;;;2.63;2.45;;;;;;;21.01;59.65;101412.59;6363169;28;20198;-77
2021/08/11 09:24:21;;;;;;;2.88;2.70;;;;;;;21.06;60.35;101407.09;6364429;28;20214;-77
2021/08/11 09:27:26;;;;;;;4.18;2.80;;;;;;;21.08;61.32;101407.66;6365137;28;20275;-77
2021/08/11 09:30:33;;;;;;;2.45;2.35;;;;;;;21.18;61.90;101410.44;6365846;28;20183;-78
2021/08/11 09:33:37;;;;;;;2.90;2.80;;;;;;;21.04;60.68;101406.50;6364690;28;20267;-77
2021/08/11 09:36:48;;;;;;;2.90;2.70;;;;;;;21.12;61.04;101407.94;6365654;28;20245;-77
2021/08/11 09:39:52;;;;;;;3.03;2.85;;;;;;;21.25;60.96;101406.59;6365239;28;20182;-77
2021/08/11 09:43:03;;;;;;;3.40;3.17;;;;;;;21.26;61.70;101419.38;6363442;28;20210;-76
2021/08/11 09:46:08;;;;;;;2.97;2.78;;;;;;;21.33;62.55;101414.38;6365475;28;20221;-76
2021/08/11 09:49:17;;;;;;;3.00;2.90;;;;;;;21.28;62.51;101401.34;6364718;28;20189;-77
2021/08/11 09:52:25;;;;;;;2.90;2.70;;;;;;;21.34;62.09;101410.50;6363590;28;20189;-77
2021/08/11 09:55:31;;;;;;;2.85;2.75;;;;;;;21.29;64.68;101402.16;6364896;28;20189;-77
2021/08/11 09:58:38;;;;;;;3.13;2.90;;;;;;;21.25;60.01;101410.19;6364964;28;20189;-78
2021/08/11 10:01:42;;;;;;;2.90;2.80;;;;;;;21.29;60.97;101402.16;6346207;28;20268;-77
2021/08/11 10:04:51;;;;;;;2.80;2.70;;;;;;;21.27;58.86;101407.13;6363839;28;20210;-77
2021/08/11 10:07:57;;;;;;;2.75;2.53;;;;;;;21.33;58.16;101403.28;6364810;28;20182;-76
2021/08/11 10:11:02;;;;;;;2.63;2.53;;;;;;;21.26;58.53;101413.81;6364951;28;20193;-77
2021/08/11 10:14:10;;;;;;;3.13;2.92;;;;;;;21.31;61.17;101411.06;6363439;28;20257;-76
2021/08/11 10:17:15;;;;;;;4.43;2.70;;;;;;;21.34;59.15;101410.50;6363260;28;20183;-77
2021/08/11 10:20:22;;;;;;;3.85;3.15;;;;;;;21.30;59.89;101403.81;6363924;28;20182;-77
2021/08/11 10:23:27;;;;;;;4.70;3.05;;;;;;;21.34;60.35;101416.88;6364185;28;20210;-77
2021/08/11 10:26:33;;;;;;;3.65;2.85;;;;;;;21.38;59.54;101411.63;6363490;28;20186;-77
2021/08/11 10:29:38;;;;;;;3.95;3.70;;;;;;;21.31;60.10;101413.81;6363611;28;20188;-77
2021/08/11 10:32:43;;;;;;;4.88;2.88;;;;;;;21.40;59.66;101415.78;6364570;28;20320;-77
2021/08/11 10:35:50;;;;;;;3.53;3.17;;;;;;;21.30;58.77;101414.91;6364338;28;20187;-77
2021/08/11 10:39:00;;;;;;;2.80;2.70;;;;;;;21.26;59.84;101420.19;6365815;28;20251;-78
2021/08/11 10:42:11;;;;;;;3.38;3.20;;;;;;;21.16;60.99;101409.88;6366090;28;20194;-78
2021/08/11 10:45:22;;;;;;;3.17;2.97;;;;;;;21.21;62.21;101423.78;6364813;28;20210;-78
2021/08/11 10:48:28;;;;;;;3.65;3.35;;;;;;;21.31;62.36;101416.59;6364011;28;20182;-77
2021/08/11 10:51:38;;;;;;;6.80;3.33;;;;;;;21.37;62.17;101409.94;6362620;28;20182;-77
2021/08/11 10:54:54;;;;;;;3.70;3.25;;;;;;;21.43;62.37;101414.41;6364612;28;20218;-77
2021/08/11 10:57:58;;;;;;;5.25;3.10;;;;;;;21.48;63.99;101412.47;6363655;28;20183;-77
2021/08/11 11:01:03;;;;;;;3.67;2.72;;;;;;;21.50;63.46;101414.97;6363649;28;20182;-77
2021/08/11 11:04:09;;;;;;;2.70;2.58;;;;;;;21.62;62.23;101412.78;6363560;28;20217;-77
2021/08/11 11:07:20;;;;;;;2.70;2.53;;;;;;;21.57;61.74;101412.75;6362908;28;20380;-78
2021/08/11 11:10:28;;;;;;;2.88;2.70;;;;;;;21.65;61.72;101423.28;6364528;28;20246;-78
2021/08/11 11:13:41;;;;;;;4.47;3.22;;;;;;;21.78;61.34;101433.88;6364137;28;20255;-78
2021/08/11 11:17:13;;;;;;;8.43;6.43;;;;;;;21.84;60.12;101443.88;6364597;28;20182;-78
2021/08/11 11:20:21;;;;;;;3.40;3.20;;;;;;;21.88;60.34;101433.91;6362728;28;20182;-76
2021/08/11 11:23:34;;;;;;;8.68;4.05;;;;;;;22.05;61.01;101423.34;6363560;28;20210;-77
2021/08/11 11:26:40;;;;;;;2.83;2.72;;;;;;;21.99;59.82;101429.19;6363487;28;20228;-77
2021/08/11 11:29:48;;;;;;;3.25;2.95;;;;;;;22.12;61.11;101428.63;6363318;28;20257;-77
2021/08/11 11:32:53;;;;;;;3.50;3.28;;;;;;;22.28;61.59;101422.78;6362727;28;20225;-77
2021/08/11 11:36:23;;;;;;;4.38;3.10;;;;;;;22.05;60.17;101419.75;6362256;28;20193;-77
2021/08/11 11:39:29;;;;;;;5.28;3.00;;;;;;;22.35;59.44;101412.19;6361955;28;20221;-77
2021/08/11 11:42:34;;;;;;;2.88;2.78;;;;;;;22.54;59.31;101414.38;6362959;28;20218;-77
2021/08/11 11:45:46;;;;;;;2.67;2.58;;;;;;;22.56;58.77;101417.69;6362094;28;20206;-77
2021/08/11 11:49:19;;;;;;;87.93;66.45;;;;;;;22.60;59.42;101410.47;6362866;28;20201;-77
2021/08/11 11:52:25;;;;;;;4.38;3.95;;;;;;;22.64;60.56;101415.22;6362704;28;20218;-77
2021/08/11 11:55:30;;;;;;;3.30;2.97;;;;;;;22.62;58.52;101419.34;6362211;28;20186;-77
2021/08/11 11:58:42;;;;;;;3.00;2.80;;;;;;;22.64;58.34;101425.50;6361397;28;20196;-77
2021/08/11 12:01:47;;;;;;;2.70;2.55;;;;;;;22.58;62.24;101426.56;6361967;28;20370;-77
2021/08/11 12:05:02;;;;;;;5.15;2.90;;;;;;;22.44;58.18;101410.47;6362222;28;20214;-77
2021/08/11 12:08:10;;;;;;;10.48;3.42;;;;;;;22.45;58.39;101423.28;6361784;28;20197;-77
2021/08/11 12:11:19;;;;;;;3.58;3.20;;;;;;;22.33;59.52;101425.53;6362685;28;20286;-77
2021/08/11 12:14:25;;;;;;;3.83;2.92;;;;;;;22.33;59.84;101419.16;6364412;28;20218;-77
2021/08/11 12:17:30;;;;;;;2.67;2.58;;;;;;;22.29;59.99;101418.06;6365509;28;20373;-77
2021/08/11 12:20:37;;;;;;;3.47;2.65;;;;;;;22.29;56.47;101429.97;6365742;28;20221;-77
2021/08/11 12:23:44;;;;;;;2.83;2.67;;;;;;;22.18;57.45;101422.78;6367030;28;20249;-77
2021/08/11 12:26:48;;;;;;;2.60;2.50;;;;;;;22.19;57.54;101430.00;6366381;28;20246;-77
2021/08/11 12:30:19;;;;;;;4.32;2.75;;;;;;;22.05;56.84;101423.34;6366582;28;20183;-77
2021/08/11 12:33:26;;;;;;;2.70;2.50;;;;;;;22.03;56.84;101417.25;6366324;28;20236;-77
2021/08/11 12:36:38;;;;;;;3.08;2.88;;;;;;;21.95;57.75;101412.25;6366860;28;20186;-77
2021/08/11 12:39:42;;;;;;;2.50;2.40;;;;;;;21.70;57.87;101420.53;6365413;28;20207;-78
2021/08/11 12:42:53;;;;;;;2.70;2.50;;;;;;;21.73;58.22;101425.53;6366623;28;20186;-77
2021/08/11 12:46:02;;;;;;;3.13;2.60;;;;;;;21.82;59.11;101424.72;6365526;28;20255;-77
2021/08/11 12:49:14;;;;;;;4.80;2.22;;;;;;;21.91;57.04;101411.13;6365574;28;20182;-77
2021/08/11 12:52:19;;;;;;;2.70;2.50;;;;;;;22.15;59.42;101417.78;6366596;28;20182;-77
2021/08/11 12:55:34;;;;;;;2.65;2.65;;;;;;;22.15;57.82;101415.00;6367677;28;20246;-78
2021/08/11 12:59:01;;;;;;;2.53;2.35;;;;;;;22.04;57.20;101410.56;6366194;28;20182;-78
2021/08/11 13:02:24;;;;;;;3.53;2.88;;;;;;;21.98;57.72;101411.66;6366614;28;20215;-78
2021/08/11 13:05:28;;;;;;;2.47;2.38;;;;;;;22.07;55.75;101393.34;6364656;28;20229;-78
2021/08/11 13:08:39;;;;;;;3.13;2.58;;;;;;;22.11;56.25;101388.06;6366142;28;20286;-78
2021/08/11 13:11:52;;;;;;;6.10;2.58;;;;;;;22.25;56.73;101401.09;6365533;28;20182;-78
2021/08/11 13:14:58;;;;;;;3.05;2.72;;;;;;;22.31;56.82;101394.41;6364877;28;20186;-77
2021/08/11 13:18:07;;;;;;;3.05;2.75;;;;;;;22.52;56.96;101388.81;6365774;28;20470;-78
2021/08/11 13:21:12;;;;;;;3.08;2.88;;;;;;;22.71;56.82;101381.50;6368981;28;20249;-78
2021/08/11 13:24:16;;;;;;;2.80;2.60;;;;;;;23.27;56.04;101385.66;6367596;28;20182;-77
2021/08/11 13:27:21;;;;;;;3.03;2.83;;;;;;;23.44;53.57;101391.72;6368979;28;20193;-77
2021/08/11 13:30:26;;;;;;;4.07;3.47;;;;;;;23.31;54.94;101381.19;6368762;28;20440;-77
2021/08/11 13:33:32;;;;;;;3.25;2.65;;;;;;;23.33;55.02;101390.09;6369003;28;20242;-77
2021/08/11 13:36:36;;;;;;;2.75;2.65;;;;;;;23.34;53.71;101386.16;6369287;28;20182;-77
2021/08/11 13:39:40;;;;;;;2.65;2.45;;;;;;;23.25;53.44;101387.06;6366842;28;20214;-77
2021/08/11 13:42:46;;;;;;;6.45;4.05;;;;;;;23.28;51.87;101392.91;6363815;28;20182;-77
2021/08/11 13:45:51;;;;;;;2.95;2.75;;;;;;;23.21;50.52;101397.13;6364349;28;20521;-77
2021/08/11 13:48:57;;;;;;;2.42;2.33;;;;;;;23.30;49.57;101385.09;6368635;28;20217;-77
2021/08/11 13:52:01;;;;;;;2.63;2.63;;;;;;;23.37;51.99;101391.19;6370673;28;20182;-78
2021/08/11 13:55:07;;;;;;;2.78;2.53;;;;;;;23.41;51.83;101385.91;6368276;28;20186;-77
2021/08/11 13:58:14;;;;;;;2.40;2.30;;;;;;;23.30;51.19;101390.66;6365103;28;20182;-76
2021/08/11 14:01:19;;;;;;;2.25;2.25;;;;;;;23.35;51.91;101385.06;6363936;28;20274;-77
2021/08/11 14:04:25;;;;;;;4.15;2.88;;;;;;;23.45;50.84;101387.81;6365630;28;20186;-77
2021/08/11 14:07:29;;;;;;;2.75;2.55;;;;;;;23.49;50.61;101388.91;6365740;28;20213;-78
2021/08/11 14:10:33;;;;;;;2.47;2.47;;;;;;;23.49;50.33;101383.34;6365269;28;20182;-77
2021/08/11 14:13:38;;;;;;;98.45;67.63;;;;;;;23.58;49.30;101392.72;6365184;28;20269;-78
2021/08/11 14:16:42;;;;;;;7.63;6.72;;;;;;;23.45;49.91;101387.81;6364973;28;20292;-78
2021/08/11 14:19:50;;;;;;;3.33;3.13;;;;;;;23.38;51.80;101397.59;6364479;28;20488;-78
2021/08/11 14:22:54;;;;;;;3.50;2.80;;;;;;;23.33;51.50;101395.66;6365571;28;20258;-78
2021/08/11 14:25:58;;;;;;;2.97;2.67;;;;;;;23.30;49.22;101393.44;6364040;28;20206;-78
2021/08/11 14:29:03;;;;;;;5.95;2.50;;;;;;;23.34;51.56;101397.31;6364946;28;20182;-78